sensor_id;sensor_type;location;lat;lon;timestamp;P1;durP1;ratioP1;P2;durP2;ratioP2
57663;SDS011;43493;53.098;6.064;2022-09-09T00:00:23;15.17;;;10.63;;
57663;SDS011;43493;53.098;6.064;2022-09-09T00:03:02;18.90;;;11.67;;
57663;SDS011;43493;53.098;6.064;2022-09-09T00:11:17;20.57;;;10.63;;
57663;SDS011;43493;53.098;6.064;2022-09-09T00:14:08;17.57;;;11.87;;
57663;SDS011;43493;53.098;6.064;2022-09-09T00:17:04;17.37;;;9.77;;
57663;SDS011;43493;53.098;6.064;2022-09-09T00:19:39;19.83;;;11.60;;
57663;SDS011;43493;53.098;6.064;2022-09-09T00:22:15;14.35;;;10.93;;
57663;SDS011;43493;53.098;6.064;2022-09-09T00:24:47;15.63;;;11.35;;
57663;SDS011;43493;53.098;6.064;2022-09-09T00:29:58;23.90;;;13.17;;
57663;SDS011;43493;53.098;6.064;2022-09-09T00:32:38;18.93;;;11.83;;
57663;SDS011;43493;53.098;6.064;2022-09-09T00:37:43;19.27;;;11.57;;
57663;SDS011;43493;53.098;6.064;2022-09-09T00:40:22;18.03;;;11.30;;
57663;SDS011;43493;53.098;6.064;2022-09-09T00:43:04;15.98;;;11.10;;
57663;SDS011;43493;53.098;6.064;2022-09-09T00:46:07;21.17;;;12.07;;
57663;SDS011;43493;53.098;6.064;2022-09-09T00:57:36;18.60;;;12.15;;
57663;SDS011;43493;53.098;6.064;2022-09-09T00:59:52;17.10;;;10.57;;
57663;SDS011;43493;53.098;6.064;2022-09-09T01:02:40;14.03;;;10.17;;
57663;SDS011;43493;53.098;6.064;2022-09-09T01:08:14;20.23;;;11.83;;
57663;SDS011;43493;53.098;6.064;2022-09-09T01:11:02;16.47;;;11.50;;
57663;SDS011;43493;53.098;6.064;2022-09-09T01:13:28;17.93;;;11.57;;
57663;SDS011;43493;53.098;6.064;2022-09-09T01:15:57;20.97;;;10.70;;
57663;SDS011;43493;53.098;6.064;2022-09-09T01:18:34;17.67;;;11.50;;
57663;SDS011;43493;53.098;6.064;2022-09-09T01:21:27;16.83;;;10.63;;
57663;SDS011;43493;53.098;6.064;2022-09-09T01:24:15;14.67;;;9.73;;
57663;SDS011;43493;53.098;6.064;2022-09-09T01:26:45;16.80;;;9.40;;
57663;SDS011;43493;53.098;6.064;2022-09-09T01:29:13;15.27;;;9.67;;
57663;SDS011;43493;53.098;6.064;2022-09-09T01:31:42;19.13;;;9.40;;
57663;SDS011;43493;53.098;6.064;2022-09-09T01:34:18;17.23;;;9.40;;
57663;SDS011;43493;53.098;6.064;2022-09-09T01:36:45;15.33;;;9.77;;
57663;SDS011;43493;53.098;6.064;2022-09-09T01:39:18;14.27;;;9.15;;
57663;SDS011;43493;53.098;6.064;2022-09-09T01:41:45;12.80;;;8.67;;
57663;SDS011;43493;53.098;6.064;2022-09-09T01:44:11;10.73;;;8.47;;
57663;SDS011;43493;53.098;6.064;2022-09-09T01:46:37;16.00;;;9.40;;
57663;SDS011;43493;53.098;6.064;2022-09-09T01:49:03;15.23;;;9.30;;
57663;SDS011;43493;53.098;6.064;2022-09-09T01:51:32;10.77;;;9.07;;
57663;SDS011;43493;53.098;6.064;2022-09-09T01:53:58;11.27;;;8.00;;
57663;SDS011;43493;53.098;6.064;2022-09-09T01:56:46;13.60;;;8.90;;
57663;SDS011;43493;53.098;6.064;2022-09-09T02:02:11;13.27;;;8.70;;
57663;SDS011;43493;53.098;6.064;2022-09-09T02:04:39;13.23;;;8.93;;
57663;SDS011;43493;53.098;6.064;2022-09-09T02:09:40;15.23;;;8.70;;
57663;SDS011;43493;53.098;6.064;2022-09-09T02:12:14;16.63;;;9.23;;
57663;SDS011;43493;53.098;6.064;2022-09-09T02:14:47;17.00;;;9.90;;
57663;SDS011;43493;53.098;6.064;2022-09-09T02:17:25;14.37;;;9.80;;
57663;SDS011;43493;53.098;6.064;2022-09-09T02:22:33;17.67;;;10.43;;
57663;SDS011;43493;53.098;6.064;2022-09-09T02:25:01;14.73;;;10.33;;
57663;SDS011;43493;53.098;6.064;2022-09-09T02:27:30;13.17;;;10.43;;
57663;SDS011;43493;53.098;6.064;2022-09-09T02:29:56;12.10;;;9.43;;
57663;SDS011;43493;53.098;6.064;2022-09-09T02:32:27;16.30;;;11.03;;
57663;SDS011;43493;53.098;6.064;2022-09-09T02:35:00;16.03;;;9.97;;
57663;SDS011;43493;53.098;6.064;2022-09-09T02:37:33;13.63;;;10.23;;
57663;SDS011;43493;53.098;6.064;2022-09-09T02:40:03;14.17;;;10.53;;
57663;SDS011;43493;53.098;6.064;2022-09-09T02:42:30;17.43;;;11.37;;
57663;SDS011;43493;53.098;6.064;2022-09-09T02:44:56;14.07;;;10.97;;
57663;SDS011;43493;53.098;6.064;2022-09-09T02:47:27;16.23;;;10.60;;
57663;SDS011;43493;53.098;6.064;2022-09-09T02:50:16;17.43;;;12.13;;
57663;SDS011;43493;53.098;6.064;2022-09-09T02:55:41;17.00;;;12.07;;
57663;SDS011;43493;53.098;6.064;2022-09-09T02:58:22;15.57;;;11.67;;
57663;SDS011;43493;53.098;6.064;2022-09-09T03:00:49;20.33;;;11.80;;
57663;SDS011;43493;53.098;6.064;2022-09-09T03:03:16;21.80;;;13.27;;
57663;SDS011;43493;53.098;6.064;2022-09-09T03:05:44;20.80;;;12.03;;
57663;SDS011;43493;53.098;6.064;2022-09-09T03:08:10;19.87;;;12.33;;
57663;SDS011;43493;53.098;6.064;2022-09-09T03:10:38;14.23;;;10.90;;
57663;SDS011;43493;53.098;6.064;2022-09-09T03:13:03;16.97;;;12.43;;
57663;SDS011;43493;53.098;6.064;2022-09-09T03:15:31;22.53;;;13.70;;
57663;SDS011;43493;53.098;6.064;2022-09-09T03:17:58;18.80;;;13.03;;
57663;SDS011;43493;53.098;6.064;2022-09-09T03:20:25;20.30;;;12.47;;
57663;SDS011;43493;53.098;6.064;2022-09-09T03:22:52;18.67;;;13.47;;
57663;SDS011;43493;53.098;6.064;2022-09-09T03:25:19;13.90;;;11.30;;
57663;SDS011;43493;53.098;6.064;2022-09-09T03:27:45;16.07;;;12.13;;
57663;SDS011;43493;53.098;6.064;2022-09-09T03:30:11;18.53;;;11.97;;
57663;SDS011;43493;53.098;6.064;2022-09-09T03:32:37;19.87;;;12.67;;
57663;SDS011;43493;53.098;6.064;2022-09-09T03:35:03;17.57;;;12.40;;
57663;SDS011;43493;53.098;6.064;2022-09-09T03:37:29;16.53;;;12.57;;
57663;SDS011;43493;53.098;6.064;2022-09-09T03:39:55;15.30;;;11.87;;
57663;SDS011;43493;53.098;6.064;2022-09-09T03:42:20;17.33;;;12.60;;
57663;SDS011;43493;53.098;6.064;2022-09-09T03:44:47;17.57;;;12.77;;
57663;SDS011;43493;53.098;6.064;2022-09-09T03:47:17;22.97;;;13.17;;
57663;SDS011;43493;53.098;6.064;2022-09-09T03:49:43;18.17;;;12.10;;
57663;SDS011;43493;53.098;6.064;2022-09-09T03:52:09;22.17;;;13.97;;
57663;SDS011;43493;53.098;6.064;2022-09-09T03:54:35;19.17;;;13.97;;
57663;SDS011;43493;53.098;6.064;2022-09-09T03:57:01;17.97;;;13.27;;
57663;SDS011;43493;53.098;6.064;2022-09-09T03:59:27;17.03;;;13.33;;
57663;SDS011;43493;53.098;6.064;2022-09-09T04:01:53;25.00;;;14.67;;
57663;SDS011;43493;53.098;6.064;2022-09-09T04:04:19;18.33;;;13.60;;
57663;SDS011;43493;53.098;6.064;2022-09-09T04:06:45;28.93;;;14.63;;
57663;SDS011;43493;53.098;6.064;2022-09-09T04:09:13;20.87;;;13.40;;
57663;SDS011;43493;53.098;6.064;2022-09-09T04:11:39;18.53;;;12.63;;
57663;SDS011;43493;53.098;6.064;2022-09-09T04:14:05;16.00;;;13.03;;
57663;SDS011;43493;53.098;6.064;2022-09-09T04:16:31;22.53;;;13.37;;
57663;SDS011;43493;53.098;6.064;2022-09-09T04:18:58;23.47;;;13.70;;
57663;SDS011;43493;53.098;6.064;2022-09-09T04:21:25;20.10;;;12.63;;
57663;SDS011;43493;53.098;6.064;2022-09-09T04:23:51;21.63;;;13.97;;
57663;SDS011;43493;53.098;6.064;2022-09-09T04:26:16;23.27;;;13.50;;
57663;SDS011;43493;53.098;6.064;2022-09-09T04:28:43;19.27;;;13.93;;
57663;SDS011;43493;53.098;6.064;2022-09-09T04:31:18;23.17;;;14.80;;
57663;SDS011;43493;53.098;6.064;2022-09-09T04:33:48;20.33;;;13.13;;
57663;SDS011;43493;53.098;6.064;2022-09-09T04:36:14;22.53;;;14.90;;
57663;SDS011;43493;53.098;6.064;2022-09-09T04:38:40;16.93;;;11.90;;
57663;SDS011;43493;53.098;6.064;2022-09-09T04:41:06;16.83;;;10.47;;
57663;SDS011;43493;53.098;6.064;2022-09-09T04:43:33;18.83;;;12.27;;
57663;SDS011;43493;53.098;6.064;2022-09-09T04:45:59;14.87;;;10.30;;
57663;SDS011;43493;53.098;6.064;2022-09-09T04:48:25;18.60;;;12.77;;
57663;SDS011;43493;53.098;6.064;2022-09-09T04:50:55;18.17;;;12.97;;
57663;SDS011;43493;53.098;6.064;2022-09-09T04:53:22;18.40;;;12.90;;
57663;SDS011;43493;53.098;6.064;2022-09-09T04:55:48;19.37;;;13.57;;
57663;SDS011;43493;53.098;6.064;2022-09-09T04:58:14;15.20;;;12.63;;
57663;SDS011;43493;53.098;6.064;2022-09-09T05:00:40;16.37;;;12.47;;
57663;SDS011;43493;53.098;6.064;2022-09-09T05:03:07;19.90;;;13.20;;
57663;SDS011;43493;53.098;6.064;2022-09-09T05:05:33;20.20;;;13.53;;
57663;SDS011;43493;53.098;6.064;2022-09-09T05:08:03;22.63;;;15.83;;
57663;SDS011;43493;53.098;6.064;2022-09-09T05:10:31;22.63;;;15.43;;
57663;SDS011;43493;53.098;6.064;2022-09-09T05:12:58;22.70;;;15.30;;
57663;SDS011;43493;53.098;6.064;2022-09-09T05:15:24;22.30;;;15.40;;
57663;SDS011;43493;53.098;6.064;2022-09-09T05:17:50;23.03;;;16.87;;
57663;SDS011;43493;53.098;6.064;2022-09-09T05:20:18;24.07;;;16.50;;
57663;SDS011;43493;53.098;6.064;2022-09-09T05:22:44;24.70;;;16.07;;
57663;SDS011;43493;53.098;6.064;2022-09-09T05:25:09;19.43;;;15.50;;
57663;SDS011;43493;53.098;6.064;2022-09-09T05:27:35;20.67;;;16.70;;
57663;SDS011;43493;53.098;6.064;2022-09-09T05:30:01;22.87;;;16.43;;
57663;SDS011;43493;53.098;6.064;2022-09-09T05:32:27;20.83;;;15.90;;
57663;SDS011;43493;53.098;6.064;2022-09-09T05:34:57;22.77;;;15.73;;
57663;SDS011;43493;53.098;6.064;2022-09-09T05:37:24;21.83;;;16.37;;
57663;SDS011;43493;53.098;6.064;2022-09-09T05:39:50;19.33;;;16.83;;
57663;SDS011;43493;53.098;6.064;2022-09-09T05:42:16;22.50;;;16.93;;
57663;SDS011;43493;53.098;6.064;2022-09-09T05:44:42;19.33;;;14.93;;
57663;SDS011;43493;53.098;6.064;2022-09-09T05:47:08;21.77;;;15.47;;
57663;SDS011;43493;53.098;6.064;2022-09-09T05:49:34;22.23;;;16.00;;
57663;SDS011;43493;53.098;6.064;2022-09-09T05:51:59;28.33;;;16.93;;
57663;SDS011;43493;53.098;6.064;2022-09-09T05:54:25;20.40;;;15.00;;
57663;SDS011;43493;53.098;6.064;2022-09-09T05:56:51;21.93;;;14.97;;
57663;SDS011;43493;53.098;6.064;2022-09-09T05:59:18;21.23;;;15.70;;
57663;SDS011;43493;53.098;6.064;2022-09-09T06:01:44;20.27;;;14.47;;
57663;SDS011;43493;53.098;6.064;2022-09-09T06:04:10;19.30;;;13.40;;
57663;SDS011;43493;53.098;6.064;2022-09-09T06:06:36;19.83;;;13.60;;
57663;SDS011;43493;53.098;6.064;2022-09-09T06:09:05;17.47;;;12.67;;
57663;SDS011;43493;53.098;6.064;2022-09-09T06:11:34;19.60;;;13.23;;
57663;SDS011;43493;53.098;6.064;2022-09-09T06:14:01;19.60;;;14.47;;
57663;SDS011;43493;53.098;6.064;2022-09-09T06:16:28;19.97;;;13.67;;
57663;SDS011;43493;53.098;6.064;2022-09-09T06:18:55;20.67;;;14.13;;
57663;SDS011;43493;53.098;6.064;2022-09-09T06:21:35;16.63;;;13.17;;
57663;SDS011;43493;53.098;6.064;2022-09-09T06:24:02;16.40;;;13.17;;
57663;SDS011;43493;53.098;6.064;2022-09-09T06:26:32;20.77;;;13.33;;
57663;SDS011;43493;53.098;6.064;2022-09-09T06:29:03;20.50;;;15.02;;
57663;SDS011;43493;53.098;6.064;2022-09-09T06:31:30;19.47;;;13.40;;
57663;SDS011;43493;53.098;6.064;2022-09-09T06:33:59;16.67;;;13.23;;
57663;SDS011;43493;53.098;6.064;2022-09-09T06:36:33;15.97;;;13.80;;
57663;SDS011;43493;53.098;6.064;2022-09-09T06:39:03;18.30;;;13.80;;
57663;SDS011;43493;53.098;6.064;2022-09-09T06:41:29;18.20;;;13.37;;
57663;SDS011;43493;53.098;6.064;2022-09-09T06:43:56;16.33;;;13.30;;
57663;SDS011;43493;53.098;6.064;2022-09-09T06:46:23;19.97;;;14.80;;
57663;SDS011;43493;53.098;6.064;2022-09-09T06:48:53;21.20;;;14.97;;
57663;SDS011;43493;53.098;6.064;2022-09-09T06:51:25;26.73;;;14.93;;
57663;SDS011;43493;53.098;6.064;2022-09-09T06:53:53;16.20;;;13.00;;
57663;SDS011;43493;53.098;6.064;2022-09-09T06:56:27;19.10;;;13.83;;
57663;SDS011;43493;53.098;6.064;2022-09-09T06:58:55;15.98;;;13.75;;
57663;SDS011;43493;53.098;6.064;2022-09-09T07:01:27;17.93;;;12.13;;
57663;SDS011;43493;53.098;6.064;2022-09-09T07:03:56;15.50;;;11.40;;
57663;SDS011;43493;53.098;6.064;2022-09-09T07:06:27;15.23;;;12.20;;
57663;SDS011;43493;53.098;6.064;2022-09-09T07:08:55;16.60;;;13.47;;
57663;SDS011;43493;53.098;6.064;2022-09-09T07:11:29;14.57;;;12.17;;
57663;SDS011;43493;53.098;6.064;2022-09-09T07:13:56;16.13;;;11.20;;
57663;SDS011;43493;53.098;6.064;2022-09-09T07:16:24;15.33;;;12.10;;
57663;SDS011;43493;53.098;6.064;2022-09-09T07:18:50;14.57;;;11.17;;
57663;SDS011;43493;53.098;6.064;2022-09-09T07:21:17;16.33;;;11.03;;
57663;SDS011;43493;53.098;6.064;2022-09-09T07:23:44;11.07;;;9.83;;
57663;SDS011;43493;53.098;6.064;2022-09-09T07:26:11;14.57;;;10.97;;
57663;SDS011;43493;53.098;6.064;2022-09-09T07:28:44;11.40;;;8.25;;
57663;SDS011;43493;53.098;6.064;2022-09-09T07:31:15;9.77;;;8.23;;
57663;SDS011;43493;53.098;6.064;2022-09-09T07:33:42;10.43;;;7.80;;
57663;SDS011;43493;53.098;6.064;2022-09-09T07:36:13;14.73;;;8.43;;
57663;SDS011;43493;53.098;6.064;2022-09-09T07:38:41;11.17;;;8.37;;
57663;SDS011;43493;53.098;6.064;2022-09-09T07:41:10;10.73;;;7.67;;
57663;SDS011;43493;53.098;6.064;2022-09-09T07:43:41;9.57;;;6.53;;
57663;SDS011;43493;53.098;6.064;2022-09-09T07:46:09;11.00;;;7.80;;
57663;SDS011;43493;53.098;6.064;2022-09-09T07:48:37;11.70;;;6.23;;
57663;SDS011;43493;53.098;6.064;2022-09-09T07:51:10;12.13;;;7.40;;
57663;SDS011;43493;53.098;6.064;2022-09-09T07:53:38;9.67;;;6.57;;
57663;SDS011;43493;53.098;6.064;2022-09-09T07:56:05;7.80;;;6.13;;
57663;SDS011;43493;53.098;6.064;2022-09-09T07:58:34;10.13;;;6.03;;
57663;SDS011;43493;53.098;6.064;2022-09-09T08:01:10;10.83;;;6.07;;
57663;SDS011;43493;53.098;6.064;2022-09-09T08:03:52;8.20;;;5.90;;
57663;SDS011;43493;53.098;6.064;2022-09-09T08:06:24;8.90;;;6.67;;
57663;SDS011;43493;53.098;6.064;2022-09-09T08:08:51;9.60;;;6.67;;
57663;SDS011;43493;53.098;6.064;2022-09-09T08:11:18;9.10;;;5.73;;
57663;SDS011;43493;53.098;6.064;2022-09-09T08:13:44;9.93;;;5.37;;
57663;SDS011;43493;53.098;6.064;2022-09-09T08:16:17;9.73;;;5.63;;
57663;SDS011;43493;53.098;6.064;2022-09-09T08:18:46;9.43;;;5.77;;
57663;SDS011;43493;53.098;6.064;2022-09-09T08:21:15;9.83;;;6.00;;
57663;SDS011;43493;53.098;6.064;2022-09-09T08:23:44;8.77;;;5.67;;
57663;SDS011;43493;53.098;6.064;2022-09-09T08:26:12;11.67;;;6.13;;
57663;SDS011;43493;53.098;6.064;2022-09-09T08:28:44;8.40;;;5.70;;
57663;SDS011;43493;53.098;6.064;2022-09-09T08:31:14;10.53;;;5.43;;
57663;SDS011;43493;53.098;6.064;2022-09-09T08:33:42;13.97;;;6.37;;
57663;SDS011;43493;53.098;6.064;2022-09-09T08:36:15;9.80;;;6.03;;
57663;SDS011;43493;53.098;6.064;2022-09-09T08:38:42;9.57;;;5.93;;
57663;SDS011;43493;53.098;6.064;2022-09-09T08:43:52;11.37;;;5.07;;
57663;SDS011;43493;53.098;6.064;2022-09-09T08:46:39;12.30;;;5.47;;
57663;SDS011;43493;53.098;6.064;2022-09-09T08:52:08;9.57;;;5.07;;
57663;SDS011;43493;53.098;6.064;2022-09-09T08:54:43;8.93;;;4.90;;
57663;SDS011;43493;53.098;6.064;2022-09-09T08:57:13;12.13;;;4.90;;
57663;SDS011;43493;53.098;6.064;2022-09-09T08:59:43;11.65;;;4.60;;
57663;SDS011;43493;53.098;6.064;2022-09-09T09:02:23;8.80;;;4.30;;
57663;SDS011;43493;53.098;6.064;2022-09-09T09:10:54;8.70;;;4.07;;
57663;SDS011;43493;53.098;6.064;2022-09-09T09:16:23;9.50;;;4.20;;
57663;SDS011;43493;53.098;6.064;2022-09-09T09:18:59;11.30;;;4.90;;
57663;SDS011;43493;53.098;6.064;2022-09-09T09:21:34;11.67;;;4.13;;
57663;SDS011;43493;53.098;6.064;2022-09-09T09:24:17;10.83;;;3.53;;
57663;SDS011;43493;53.098;6.064;2022-09-09T09:26:57;11.03;;;3.63;;
57663;SDS011;43493;53.098;6.064;2022-09-09T09:32:00;10.17;;;3.40;;
57663;SDS011;43493;53.098;6.064;2022-09-09T09:34:28;8.37;;;3.50;;
57663;SDS011;43493;53.098;6.064;2022-09-09T09:36:55;11.30;;;3.27;;
57663;SDS011;43493;53.098;6.064;2022-09-09T09:39:29;8.87;;;3.60;;
57663;SDS011;43493;53.098;6.064;2022-09-09T09:41:56;12.40;;;3.70;;
57663;SDS011;43493;53.098;6.064;2022-09-09T09:49:33;9.33;;;3.30;;
57663;SDS011;43493;53.098;6.064;2022-09-09T09:52:03;9.80;;;3.13;;
57663;SDS011;43493;53.098;6.064;2022-09-09T09:54:31;10.57;;;2.90;;
57663;SDS011;43493;53.098;6.064;2022-09-09T09:57:22;8.77;;;3.30;;
57663;SDS011;43493;53.098;6.064;2022-09-09T10:02:50;9.13;;;2.70;;
57663;SDS011;43493;53.098;6.064;2022-09-09T10:05:21;10.67;;;3.20;;
57663;SDS011;43493;53.098;6.064;2022-09-09T10:11:15;7.77;;;2.53;;
57663;SDS011;43493;53.098;6.064;2022-09-09T10:19:08;12.60;;;2.87;;
57663;SDS011;43493;53.098;6.064;2022-09-09T10:49:11;6.23;;;2.23;;
57663;SDS011;43493;53.098;6.064;2022-09-09T10:51:45;9.23;;;2.80;;
57663;SDS011;43493;53.098;6.064;2022-09-09T10:57:09;9.60;;;2.60;;
57663;SDS011;43493;53.098;6.064;2022-09-09T10:59:43;10.87;;;2.67;;
57663;SDS011;43493;53.098;6.064;2022-09-09T11:02:28;8.50;;;2.20;;
57663;SDS011;43493;53.098;6.064;2022-09-09T11:07:34;10.40;;;2.40;;
57663;SDS011;43493;53.098;6.064;2022-09-09T11:10:05;12.00;;;2.37;;
57663;SDS011;43493;53.098;6.064;2022-09-09T11:12:34;8.13;;;2.53;;
57663;SDS011;43493;53.098;6.064;2022-09-09T11:15:06;7.03;;;2.00;;
57663;SDS011;43493;53.098;6.064;2022-09-09T11:17:35;7.00;;;1.73;;
57663;SDS011;43493;53.098;6.064;2022-09-09T11:20:02;7.33;;;1.83;;
57663;SDS011;43493;53.098;6.064;2022-09-09T11:42:41;8.47;;;2.67;;
57663;SDS011;43493;53.098;6.064;2022-09-09T11:45:19;7.63;;;2.00;;
57663;SDS011;43493;53.098;6.064;2022-09-09T11:47:53;8.47;;;2.50;;
57663;SDS011;43493;53.098;6.064;2022-09-09T11:52:46;10.00;;;2.20;;
57663;SDS011;43493;53.098;6.064;2022-09-09T11:58:01;9.03;;;2.37;;
57663;SDS011;43493;53.098;6.064;2022-09-09T12:00:38;8.97;;;2.13;;
57663;SDS011;43493;53.098;6.064;2022-09-09T12:03:05;8.27;;;2.10;;
57663;SDS011;43493;53.098;6.064;2022-09-09T12:05:38;9.47;;;2.70;;
57663;SDS011;43493;53.098;6.064;2022-09-09T12:08:06;11.50;;;2.47;;
57663;SDS011;43493;53.098;6.064;2022-09-09T12:10:40;6.40;;;1.90;;
57663;SDS011;43493;53.098;6.064;2022-09-09T12:15:50;9.00;;;2.57;;
57663;SDS011;43493;53.098;6.064;2022-09-09T12:18:39;9.40;;;3.03;;
57663;SDS011;43493;53.098;6.064;2022-09-09T12:24:25;6.95;;;2.22;;
57663;SDS011;43493;53.098;6.064;2022-09-09T12:29:43;8.53;;;2.27;;
57663;SDS011;43493;53.098;6.064;2022-09-09T12:32:22;9.87;;;2.83;;
57663;SDS011;43493;53.098;6.064;2022-09-09T12:34:52;8.80;;;2.83;;
57663;SDS011;43493;53.098;6.064;2022-09-09T12:37:34;11.57;;;2.50;;
57663;SDS011;43493;53.098;6.064;2022-09-09T12:40:20;6.60;;;2.72;;
57663;SDS011;43493;53.098;6.064;2022-09-09T12:42:53;11.87;;;3.40;;
57663;SDS011;43493;53.098;6.064;2022-09-09T12:45:24;10.93;;;2.87;;
57663;SDS011;43493;53.098;6.064;2022-09-09T12:48:04;10.97;;;2.23;;
57663;SDS011;43493;53.098;6.064;2022-09-09T12:50:37;9.93;;;2.30;;
57663;SDS011;43493;53.098;6.064;2022-09-09T12:53:10;9.50;;;2.40;;
57663;SDS011;43493;53.098;6.064;2022-09-09T12:55:48;9.60;;;1.97;;
57663;SDS011;43493;53.098;6.064;2022-09-09T12:58:19;7.13;;;2.00;;
57663;SDS011;43493;53.098;6.064;2022-09-09T13:00:52;8.07;;;2.30;;
57663;SDS011;43493;53.098;6.064;2022-09-09T13:03:22;8.13;;;1.80;;
57663;SDS011;43493;53.098;6.064;2022-09-09T13:05:48;7.93;;;2.10;;
57663;SDS011;43493;53.098;6.064;2022-09-09T13:08:15;11.67;;;2.20;;
57663;SDS011;43493;53.098;6.064;2022-09-09T13:10:53;9.53;;;2.30;;
57663;SDS011;43493;53.098;6.064;2022-09-09T13:13:29;7.70;;;2.57;;
57663;SDS011;43493;53.098;6.064;2022-09-09T13:16:00;7.93;;;2.70;;
57663;SDS011;43493;53.098;6.064;2022-09-09T13:18:29;10.43;;;2.40;;
57663;SDS011;43493;53.098;6.064;2022-09-09T13:20:58;9.10;;;2.83;;
57663;SDS011;43493;53.098;6.064;2022-09-09T13:23:32;8.80;;;2.30;;
57663;SDS011;43493;53.098;6.064;2022-09-09T13:26:04;8.60;;;2.90;;
57663;SDS011;43493;53.098;6.064;2022-09-09T13:28:44;6.73;;;2.20;;
57663;SDS011;43493;53.098;6.064;2022-09-09T13:31:21;9.53;;;3.27;;
57663;SDS011;43493;53.098;6.064;2022-09-09T13:33:49;9.00;;;2.70;;
57663;SDS011;43493;53.098;6.064;2022-09-09T13:36:15;7.47;;;2.53;;
57663;SDS011;43493;53.098;6.064;2022-09-09T13:38:52;11.70;;;3.20;;
57663;SDS011;43493;53.098;6.064;2022-09-09T13:44:26;13.20;;;3.57;;
57663;SDS011;43493;53.098;6.064;2022-09-09T13:47:04;9.23;;;3.43;;
57663;SDS011;43493;53.098;6.064;2022-09-09T13:49:41;11.57;;;3.03;;
57663;SDS011;43493;53.098;6.064;2022-09-09T13:52:11;8.80;;;2.57;;
57663;SDS011;43493;53.098;6.064;2022-09-09T13:54:38;5.07;;;2.03;;
57663;SDS011;43493;53.098;6.064;2022-09-09T13:57:05;6.17;;;1.90;;
57663;SDS011;43493;53.098;6.064;2022-09-09T13:59:39;7.20;;;2.20;;
57663;SDS011;43493;53.098;6.064;2022-09-09T14:02:06;6.53;;;1.77;;
57663;SDS011;43493;53.098;6.064;2022-09-09T14:04:32;5.70;;;1.70;;
57663;SDS011;43493;53.098;6.064;2022-09-09T14:07:00;6.30;;;2.00;;
57663;SDS011;43493;53.098;6.064;2022-09-09T14:09:26;4.27;;;1.60;;
57663;SDS011;43493;53.098;6.064;2022-09-09T14:11:52;6.27;;;1.70;;
57663;SDS011;43493;53.098;6.064;2022-09-09T14:14:18;6.00;;;2.10;;
57663;SDS011;43493;53.098;6.064;2022-09-09T14:16:43;5.27;;;1.80;;
57663;SDS011;43493;53.098;6.064;2022-09-09T14:19:09;5.97;;;1.83;;
57663;SDS011;43493;53.098;6.064;2022-09-09T14:21:35;5.10;;;1.60;;
57663;SDS011;43493;53.098;6.064;2022-09-09T14:24:01;5.67;;;1.70;;
57663;SDS011;43493;53.098;6.064;2022-09-09T14:26:26;4.83;;;1.70;;
57663;SDS011;43493;53.098;6.064;2022-09-09T14:28:54;5.60;;;1.90;;
57663;SDS011;43493;53.098;6.064;2022-09-09T14:31:19;6.10;;;1.73;;
57663;SDS011;43493;53.098;6.064;2022-09-09T14:33:52;4.33;;;1.30;;
57663;SDS011;43493;53.098;6.064;2022-09-09T14:36:18;5.47;;;1.90;;
57663;SDS011;43493;53.098;6.064;2022-09-09T14:38:44;6.00;;;2.23;;
57663;SDS011;43493;53.098;6.064;2022-09-09T14:41:13;8.53;;;2.10;;
57663;SDS011;43493;53.098;6.064;2022-09-09T14:46:11;5.93;;;1.83;;
57663;SDS011;43493;53.098;6.064;2022-09-09T14:48:39;7.07;;;2.07;;
57663;SDS011;43493;53.098;6.064;2022-09-09T14:51:09;4.80;;;1.63;;
57663;SDS011;43493;53.098;6.064;2022-09-09T14:53:40;7.47;;;2.20;;
57663;SDS011;43493;53.098;6.064;2022-09-09T14:56:11;8.63;;;1.77;;
57663;SDS011;43493;53.098;6.064;2022-09-09T14:58:41;7.33;;;2.13;;
57663;SDS011;43493;53.098;6.064;2022-09-09T15:01:09;6.13;;;2.20;;
57663;SDS011;43493;53.098;6.064;2022-09-09T15:03:36;9.23;;;2.77;;
57663;SDS011;43493;53.098;6.064;2022-09-09T15:06:07;8.53;;;2.47;;
57663;SDS011;43493;53.098;6.064;2022-09-09T15:08:34;5.83;;;1.60;;
57663;SDS011;43493;53.098;6.064;2022-09-09T15:11:01;5.07;;;1.70;;
57663;SDS011;43493;53.098;6.064;2022-09-09T15:13:28;11.63;;;3.10;;
57663;SDS011;43493;53.098;6.064;2022-09-09T15:15:54;7.77;;;2.00;;
57663;SDS011;43493;53.098;6.064;2022-09-09T15:18:20;8.43;;;2.30;;
57663;SDS011;43493;53.098;6.064;2022-09-09T15:20:46;5.50;;;2.33;;
57663;SDS011;43493;53.098;6.064;2022-09-09T15:23:13;5.13;;;2.37;;
57663;SDS011;43493;53.098;6.064;2022-09-09T15:25:49;7.43;;;2.50;;
57663;SDS011;43493;53.098;6.064;2022-09-09T15:28:15;5.87;;;2.00;;
57663;SDS011;43493;53.098;6.064;2022-09-09T15:30:41;5.63;;;2.23;;
57663;SDS011;43493;53.098;6.064;2022-09-09T15:33:10;7.23;;;2.80;;
57663;SDS011;43493;53.098;6.064;2022-09-09T15:35:36;8.03;;;2.70;;
57663;SDS011;43493;53.098;6.064;2022-09-09T15:38:02;7.03;;;2.60;;
57663;SDS011;43493;53.098;6.064;2022-09-09T15:40:30;6.20;;;2.80;;
57663;SDS011;43493;53.098;6.064;2022-09-09T15:42:57;7.40;;;3.10;;
57663;SDS011;43493;53.098;6.064;2022-09-09T15:45:23;7.33;;;2.70;;
57663;SDS011;43493;53.098;6.064;2022-09-09T15:47:49;8.03;;;3.10;;
57663;SDS011;43493;53.098;6.064;2022-09-09T15:50:16;6.37;;;2.40;;
57663;SDS011;43493;53.098;6.064;2022-09-09T15:52:42;6.10;;;2.30;;
57663;SDS011;43493;53.098;6.064;2022-09-09T15:55:08;5.93;;;2.70;;
57663;SDS011;43493;53.098;6.064;2022-09-09T15:57:34;6.70;;;2.40;;
57663;SDS011;43493;53.098;6.064;2022-09-09T16:00:02;6.93;;;2.67;;
57663;SDS011;43493;53.098;6.064;2022-09-09T16:02:29;6.10;;;2.60;;
57663;SDS011;43493;53.098;6.064;2022-09-09T16:04:58;4.33;;;2.13;;
57663;SDS011;43493;53.098;6.064;2022-09-09T16:07:26;4.43;;;2.40;;
57663;SDS011;43493;53.098;6.064;2022-09-09T16:09:54;5.90;;;2.60;;
57663;SDS011;43493;53.098;6.064;2022-09-09T16:12:21;9.23;;;3.10;;
57663;SDS011;43493;53.098;6.064;2022-09-09T16:14:47;5.37;;;2.57;;
57663;SDS011;43493;53.098;6.064;2022-09-09T16:17:13;4.90;;;2.60;;
57663;SDS011;43493;53.098;6.064;2022-09-09T16:19:40;6.07;;;2.80;;
57663;SDS011;43493;53.098;6.064;2022-09-09T16:22:06;6.80;;;2.70;;
57663;SDS011;43493;53.098;6.064;2022-09-09T16:24:33;6.10;;;2.80;;
57663;SDS011;43493;53.098;6.064;2022-09-09T16:26:59;5.60;;;2.40;;
57663;SDS011;43493;53.098;6.064;2022-09-09T16:29:33;9.93;;;2.80;;
57663;SDS011;43493;53.098;6.064;2022-09-09T16:31:59;7.13;;;2.80;;
57663;SDS011;43493;53.098;6.064;2022-09-09T16:34:26;5.07;;;2.53;;
57663;SDS011;43493;53.098;6.064;2022-09-09T16:36:52;7.53;;;2.70;;
57663;SDS011;43493;53.098;6.064;2022-09-09T16:39:19;7.23;;;3.03;;
57663;SDS011;43493;53.098;6.064;2022-09-09T16:41:46;8.03;;;2.90;;
57663;SDS011;43493;53.098;6.064;2022-09-09T16:44:14;7.07;;;3.40;;
57663;SDS011;43493;53.098;6.064;2022-09-09T16:46:44;5.53;;;2.50;;
57663;SDS011;43493;53.098;6.064;2022-09-09T16:49:12;6.70;;;3.60;;
57663;SDS011;43493;53.098;6.064;2022-09-09T16:51:41;7.27;;;2.97;;
57663;SDS011;43493;53.098;6.064;2022-09-09T16:54:08;6.97;;;3.40;;
57663;SDS011;43493;53.098;6.064;2022-09-09T16:56:35;6.60;;;2.87;;
57663;SDS011;43493;53.098;6.064;2022-09-09T16:59:04;7.07;;;3.10;;
57663;SDS011;43493;53.098;6.064;2022-09-09T17:01:33;7.47;;;3.17;;
57663;SDS011;43493;53.098;6.064;2022-09-09T17:04:03;7.77;;;3.10;;
57663;SDS011;43493;53.098;6.064;2022-09-09T17:06:31;9.67;;;3.03;;
57663;SDS011;43493;53.098;6.064;2022-09-09T17:09:03;7.37;;;2.83;;
57663;SDS011;43493;53.098;6.064;2022-09-09T17:11:31;5.53;;;2.80;;